Time;durP1;ratioP1;P1;durP2;ratioP2;P2;SDS_P1;SDS_P2;PMS_P1;PMS_P2;Temp;Humidity;BMP_temperature;BMP_pressure;BME280_temperature;BME280_humidity;BME280_pressure;Samples;Min_cycle;Max_cycle;Signal;HPM_P1;HPM_P2
2021/11/14 00:00:15;;;;;;;13.13;7.00;;;;;;;;;;5058520;28;20025;-55
2021/11/14 00:02:41;;;;;;;12.73;7.47;;;;;;;;;;5059890;28;20033;-55
2021/11/14 00:05:07;;;;;;;11.85;6.82;;;;;;;;;;5055017;28;20099;-57
2021/11/14 00:07:33;;;;;;;10.48;6.40;;;;;;;;;;5050031;28;20116;-57
2021/11/14 00:09:59;;;;;;;15.70;8.23;;;;;;;;;;5055839;28;20532;-53
2021/11/14 00:12:25;;;;;;;12.15;6.10;;;;;;;;;;5054484;28;20104;-56
2021/11/14 00:14:52;;;;;;;15.15;7.43;;;;;;;;;;5051210;28;20029;-56
2021/11/14 00:17:18;;;;;;;12.75;7.28;;;;;;;;;;5051357;28;20747;-52
2021/11/14 00:19:44;;;;;;;14.02;7.50;;;;;;;;;;5050228;28;20100;-57
2021/11/14 00:22:10;;;;;;;12.50;6.30;;;;;;;;;;5049102;28;20021;-53
2021/11/14 00:24:36;;;;;;;10.48;6.07;;;;;;;;;;5055343;28;20029;-53
2021/11/14 00:27:02;;;;;;;10.07;6.75;;;;;;;;;;5045093;28;20025;-54
2021/11/14 00:29:28;;;;;;;15.13;6.65;;;;;;;;;;5056625;28;20033;-57
2021/11/14 00:31:54;;;;;;;13.50;6.57;;;;;;;;;;5053027;28;20052;-55
2021/11/14 00:34:20;;;;;;;9.68;6.18;;;;;;;;;;5059301;28;20033;-55
2021/11/14 00:36:46;;;;;;;10.45;6.38;;;;;;;;;;5045557;28;20521;-53
2021/11/14 00:39:16;;;;;;;13.25;6.22;;;;;;;;;;5059881;28;20384;-57
2021/11/14 00:41:42;;;;;;;10.25;6.32;;;;;;;;;;5051401;28;20524;-56
2021/11/14 00:44:08;;;;;;;11.73;6.85;;;;;;;;;;5059639;28;20472;-57
2021/11/14 00:46:34;;;;;;;13.95;7.15;;;;;;;;;;5051756;28;20032;-57
2021/11/14 00:49:00;;;;;;;14.10;6.50;;;;;;;;;;5058770;28;20024;-57
2021/11/14 00:51:29;;;;;;;11.75;6.85;;;;;;;;;;5053803;28;20033;-56
2021/11/14 00:53:56;;;;;;;14.93;6.68;;;;;;;;;;5056376;28;20027;-57
2021/11/14 00:56:23;;;;;;;12.60;6.57;;;;;;;;;;5052370;28;20086;-57
2021/11/14 00:58:49;;;;;;;14.13;7.15;;;;;;;;;;5050732;28;20580;-57
2021/11/14 01:01:16;;;;;;;15.82;7.13;;;;;;;;;;5059032;28;20475;-57
2021/11/14 01:03:42;;;;;;;11.32;5.95;;;;;;;;;;5060479;28;20055;-57
2021/11/14 01:06:08;;;;;;;12.45;6.38;;;;;;;;;;5055039;28;20154;-57
2021/11/14 01:08:34;;;;;;;11.88;7.05;;;;;;;;;;5057306;28;20032;-56
2021/11/14 01:11:02;;;;;;;12.48;6.68;;;;;;;;;;5061307;28;20037;-56
2021/11/14 01:13:29;;;;;;;13.15;7.00;;;;;;;;;;5040779;28;20042;-56
2021/11/14 01:15:55;;;;;;;11.73;6.90;;;;;;;;;;5047867;28;20033;-55
2021/11/14 01:18:21;;;;;;;15.48;7.18;;;;;;;;;;5049077;28;20575;-53
2021/11/14 01:20:49;;;;;;;9.93;5.93;;;;;;;;;;5047870;28;20036;-53
2021/11/14 01:23:16;;;;;;;11.90;6.47;;;;;;;;;;5048960;28;20029;-56
2021/11/14 01:25:42;;;;;;;11.63;6.50;;;;;;;;;;5043489;28;20057;-56
2021/11/14 01:28:08;;;;;;;11.20;5.88;;;;;;;;;;5047434;28;20076;-53
2021/11/14 01:30:36;;;;;;;12.55;6.05;;;;;;;;;;5044239;28;20053;-54
2021/11/14 01:33:04;;;;;;;11.48;6.40;;;;;;;;;;5042213;28;20056;-54
2021/11/14 01:35:30;;;;;;;11.80;6.72;;;;;;;;;;5042836;28;20109;-55
2021/11/14 01:37:56;;;;;;;11.50;6.35;;;;;;;;;;5046087;28;20032;-57
2021/11/14 01:40:25;;;;;;;12.32;6.22;;;;;;;;;;5045367;28;20109;-57
2021/11/14 01:42:51;;;;;;;10.88;6.53;;;;;;;;;;5043536;28;20033;-56
2021/11/14 01:45:18;;;;;;;13.15;6.90;;;;;;;;;;5039839;28;20030;-55
2021/11/14 01:47:44;;;;;;;11.68;6.00;;;;;;;;;;5040740;28;20032;-57
2021/11/14 01:50:12;;;;;;;11.23;5.85;;;;;;;;;;5049898;28;20462;-57
2021/11/14 01:52:38;;;;;;;12.05;6.88;;;;;;;;;;5049566;28;20029;-57
2021/11/14 01:55:05;;;;;;;11.52;6.70;;;;;;;;;;5049349;28;20029;-57
2021/11/14 01:57:31;;;;;;;14.52;7.20;;;;;;;;;;5042702;28;20099;-57
2021/11/14 01:59:57;;;;;;;13.57;7.03;;;;;;;;;;5036213;28;20026;-56
2021/11/14 02:02:23;;;;;;;12.00;6.82;;;;;;;;;;5050907;28;20713;-55
2021/11/14 02:04:49;;;;;;;15.43;6.70;;;;;;;;;;5050734;28;20025;-53
2021/11/14 02:07:17;;;;;;;13.75;7.13;;;;;;;;;;5050370;28;20421;-55
2021/11/14 02:09:43;;;;;;;11.85;7.35;;;;;;;;;;5060825;28;20047;-56
2021/11/14 02:12:10;;;;;;;13.77;6.75;;;;;;;;;;5053637;28;20112;-52
2021/11/14 02:14:36;;;;;;;13.35;7.82;;;;;;;;;;5053630;28;20039;-53
2021/11/14 02:17:02;;;;;;;13.77;7.30;;;;;;;;;;5055596;28;20108;-53
2021/11/14 02:19:28;;;;;;;13.93;7.50;;;;;;;;;;5052714;28;20036;-52
2021/11/14 02:21:54;;;;;;;12.55;6.43;;;;;;;;;;5048815;28;20077;-55
2021/11/14 02:24:21;;;;;;;15.05;7.55;;;;;;;;;;5054059;28;20680;-54
2021/11/14 02:26:48;;;;;;;13.85;7.07;;;;;;;;;;5054517;28;20072;-55
2021/11/14 02:29:14;;;;;;;13.32;7.30;;;;;;;;;;5050433;28;20017;-53
2021/11/14 02:31:40;;;;;;;12.35;6.45;;;;;;;;;;5060354;28;20056;-53
2021/11/14 02:34:06;;;;;;;14.23;7.50;;;;;;;;;;5053628;28;20523;-53
2021/11/14 02:36:33;;;;;;;13.68;7.35;;;;;;;;;;5062464;28;20480;-53
2021/11/14 02:38:59;;;;;;;17.02;7.82;;;;;;;;;;5053372;28;20049;-52
2021/11/14 02:41:25;;;;;;;14.20;7.38;;;;;;;;;;5063430;28;20067;-57
2021/11/14 02:43:52;;;;;;;13.95;7.40;;;;;;;;;;5055218;28;20422;-57
2021/11/14 02:46:18;;;;;;;10.80;6.63;;;;;;;;;;5054759;28;20104;-55
2021/11/14 02:48:44;;;;;;;12.48;6.60;;;;;;;;;;5052566;28;20029;-55
2021/11/14 02:51:11;;;;;;;10.98;6.57;;;;;;;;;;5053669;28;20483;-58
2021/11/14 02:53:38;;;;;;;11.82;6.50;;;;;;;;;;5060862;28;20041;-57
2021/11/14 02:56:04;;;;;;;14.55;7.13;;;;;;;;;;5056856;28;20108;-55
2021/11/14 02:58:30;;;;;;;16.92;7.90;;;;;;;;;;5052266;28;20035;-54
2021/11/14 03:01:02;;;;;;;12.23;7.18;;;;;;;;;;5059158;28;20017;-54
2021/11/14 03:03:29;;;;;;;12.70;7.00;;;;;;;;;;5050871;28;20079;-52
2021/11/14 03:05:55;;;;;;;13.05;7.00;;;;;;;;;;5061256;28;20500;-54
2021/11/14 03:08:21;;;;;;;13.20;7.25;;;;;;;;;;5055966;28;20492;-57
2021/11/14 03:10:48;;;;;;;12.02;6.95;;;;;;;;;;5052578;28;20033;-54
2021/11/14 03:13:19;;;;;;;12.98;7.07;;;;;;;;;;5052552;28;20047;-53
2021/11/14 03:15:46;;;;;;;13.13;6.57;;;;;;;;;;5053206;28;20083;-52
2021/11/14 03:18:13;;;;;;;15.45;7.70;;;;;;;;;;5049582;28;20709;-54
2021/11/14 03:20:40;;;;;;;13.18;7.40;;;;;;;;;;5053255;28;20162;-53
2021/11/14 03:23:06;;;;;;;20.90;10.00;;;;;;;;;;5056895;28;20104;-55
2021/11/14 03:25:33;;;;;;;16.65;8.20;;;;;;;;;;5047360;28;20112;-55
2021/11/14 03:27:59;;;;;;;16.25;8.05;;;;;;;;;;5055889;28;20112;-51
2021/11/14 03:30:26;;;;;;;16.02;8.52;;;;;;;;;;5054014;28;20090;-52
2021/11/14 03:32:52;;;;;;;18.73;10.02;;;;;;;;;;5051758;28;20044;-53
2021/11/14 03:35:20;;;;;;;16.63;8.50;;;;;;;;;;5047573;28;20109;-52
2021/11/14 03:37:46;;;;;;;14.98;8.07;;;;;;;;;;5050518;28;20532;-52
2021/11/14 03:40:12;;;;;;;18.20;8.40;;;;;;;;;;5047690;28;20028;-53
2021/11/14 03:42:39;;;;;;;15.52;8.20;;;;;;;;;;5047223;28;20030;-51
2021/11/14 03:45:06;;;;;;;19.58;9.70;;;;;;;;;;5057366;28;20060;-53
2021/11/14 03:47:32;;;;;;;21.25;10.18;;;;;;;;;;5046409;28;20037;-57
2021/11/14 03:49:58;;;;;;;21.35;9.93;;;;;;;;;;5054052;28;20404;-57
2021/11/14 03:52:25;;;;;;;16.35;8.77;;;;;;;;;;5051443;28;20109;-53
2021/11/14 03:54:51;;;;;;;17.85;9.20;;;;;;;;;;5052513;28;20033;-56
2021/11/14 03:57:17;;;;;;;14.73;8.15;;;;;;;;;;5053714;28;20039;-54
2021/11/14 03:59:43;;;;;;;29.52;8.57;;;;;;;;;;5051733;28;20028;-56
2021/11/14 04:02:09;;;;;;;13.63;8.00;;;;;;;;;;5052787;28;20029;-57
2021/11/14 04:04:35;;;;;;;19.38;10.07;;;;;;;;;;5056867;28;20070;-57
2021/11/14 04:07:01;;;;;;;17.63;8.40;;;;;;;;;;5044966;28;20504;-57
2021/11/14 04:09:27;;;;;;;20.52;9.95;;;;;;;;;;5049065;28;20499;-54
2021/11/14 04:11:53;;;;;;;19.27;9.90;;;;;;;;;;5047470;28;20129;-57
2021/11/14 04:14:20;;;;;;;24.63;9.95;;;;;;;;;;5049531;28;20039;-57
2021/11/14 04:16:46;;;;;;;20.15;9.88;;;;;;;;;;5051463;28;20035;-51
2021/11/14 04:19:12;;;;;;;16.70;9.50;;;;;;;;;;5044293;28;20641;-53
2021/11/14 04:21:38;;;;;;;20.70;11.18;;;;;;;;;;5040481;28;20148;-52
2021/11/14 04:24:05;;;;;;;17.75;9.75;;;;;;;;;;5048323;28;20092;-52
2021/11/14 04:26:31;;;;;;;19.42;10.15;;;;;;;;;;5052753;28;20029;-55
2021/11/14 04:28:57;;;;;;;21.65;10.73;;;;;;;;;;5045840;28;20082;-54
2021/11/14 04:31:23;;;;;;;23.52;11.50;;;;;;;;;;5050081;28;20435;-54
2021/11/14 04:33:49;;;;;;;20.88;10.85;;;;;;;;;;5052165;28;20243;-55
2021/11/14 04:36:15;;;;;;;19.70;10.50;;;;;;;;;;5053486;28;20036;-53
2021/11/14 04:38:41;;;;;;;18.75;10.63;;;;;;;;;;5051348;28;20477;-54
2021/11/14 04:41:07;;;;;;;19.65;9.93;;;;;;;;;;5044506;28;20036;-52
2021/11/14 04:43:33;;;;;;;20.38;10.07;;;;;;;;;;5054260;28;20024;-56
2021/11/14 04:45:59;;;;;;;19.50;10.05;;;;;;;;;;5043334;28;20079;-57
2021/11/14 04:48:25;;;;;;;21.33;9.38;;;;;;;;;;5052932;28;20147;-57
2021/11/14 04:50:52;;;;;;;18.30;10.27;;;;;;;;;;5058457;28;20102;-59
2021/11/14 04:53:18;;;;;;;22.95;10.43;;;;;;;;;;5051439;28;20026;-57
2021/11/14 04:55:45;;;;;;;21.05;10.20;;;;;;;;;;5051555;28;20108;-56
2021/11/14 04:58:13;;;;;;;19.77;9.98;;;;;;;;;;5049442;28;20029;-55
2021/11/14 05:00:41;;;;;;;20.58;10.57;;;;;;;;;;5047692;28;20338;-58
2021/11/14 05:03:07;;;;;;;21.65;10.98;;;;;;;;;;5050197;28;20045;-53
2021/11/14 05:05:34;;;;;;;23.23;10.75;;;;;;;;;;5050194;28;20047;-54
2021/11/14 05:08:00;;;;;;;22.20;10.93;;;;;;;;;;5051592;28;20040;-51
2021/11/14 05:10:26;;;;;;;20.80;10.57;;;;;;;;;;5049120;28;20083;-56
2021/11/14 05:12:52;;;;;;;19.30;9.63;;;;;;;;;;5039403;28;20053;-56
2021/11/14 05:15:18;;;;;;;21.27;9.85;;;;;;;;;;5047252;28;20071;-54
2021/11/14 05:17:44;;;;;;;21.42;10.75;;;;;;;;;;5046783;28;20041;-52
2021/11/14 05:20:10;;;;;;;19.73;10.48;;;;;;;;;;5051534;28;20354;-52
2021/11/14 05:22:36;;;;;;;22.45;11.40;;;;;;;;;;5051792;28;20559;-54
2021/11/14 05:25:03;;;;;;;23.52;10.70;;;;;;;;;;5052658;28;20028;-55
2021/11/14 05:27:29;;;;;;;22.00;10.23;;;;;;;;;;5046830;28;20037;-51
2021/11/14 05:29:55;;;;;;;20.48;10.38;;;;;;;;;;5049870;28;20033;-54
2021/11/14 05:32:21;;;;;;;20.92;9.80;;;;;;;;;;5055121;28;20138;-52
2021/11/14 05:34:47;;;;;;;17.40;9.45;;;;;;;;;;5044616;28;20466;-56
2021/11/14 05:37:13;;;;;;;19.77;9.90;;;;;;;;;;5051971;28;20025;-51
2021/11/14 05:39:39;;;;;;;21.52;10.48;;;;;;;;;;5050229;28;20134;-54
2021/11/14 05:42:05;;;;;;;23.73;10.30;;;;;;;;;;5049907;28;20044;-55
2021/11/14 05:44:31;;;;;;;21.05;9.95;;;;;;;;;;5053283;28;20052;-56
2021/11/14 05:46:57;;;;;;;17.77;9.70;;;;;;;;;;5051221;28;20080;-57
2021/11/14 05:49:23;;;;;;;20.08;9.32;;;;;;;;;;5054956;28;20024;-56
2021/11/14 05:51:49;;;;;;;20.95;10.48;;;;;;;;;;5053215;28;20044;-57
2021/11/14 05:54:15;;;;;;;24.92;11.35;;;;;;;;;;5057073;28;20036;-56
2021/11/14 05:56:41;;;;;;;20.48;10.27;;;;;;;;;;5052369;28;20091;-55
2021/11/14 05:59:31;;;;;;;20.55;10.68;;;;;;;;;;5054046;28;20108;-52
2021/11/14 06:02:06;;;;;;;24.42;12.02;;;;;;;;;;5050198;28;20056;-55
2021/11/14 06:05:15;;;;;;;24.85;11.20;;;;;;;;;;5049033;28;20131;-57
2021/11/14 06:07:21;;;;;;;20.98;9.73;;;;;;;;;;5044755;28;20032;-55
2021/11/14 06:09:47;;;;;;;28.25;11.90;;;;;;;;;;5051734;28;20028;-56
2021/11/14 06:12:13;;;;;;;22.83;11.35;;;;;;;;;;5051156;28;20021;-55
2021/11/14 06:14:39;;;;;;;25.05;11.57;;;;;;;;;;5052632;28;20120;-57
2021/11/14 06:17:05;;;;;;;22.98;10.73;;;;;;;;;;5049580;28;20104;-55
2021/11/14 06:19:31;;;;;;;23.33;10.77;;;;;;;;;;5052693;28;20028;-55
2021/11/14 06:21:57;;;;;;;30.90;12.40;;;;;;;;;;5051706;28;20025;-55
2021/11/14 06:24:23;;;;;;;24.05;11.38;;;;;;;;;;5057630;28;20024;-53
2021/11/14 06:26:49;;;;;;;25.08;12.13;;;;;;;;;;5052805;28;20472;-53
2021/11/14 06:29:15;;;;;;;27.17;11.93;;;;;;;;;;5056934;28;20154;-53
2021/11/14 06:31:41;;;;;;;29.02;12.63;;;;;;;;;;5051752;28;20104;-57
2021/11/14 06:34:07;;;;;;;23.58;11.45;;;;;;;;;;5055678;28;20040;-55
2021/11/14 06:36:33;;;;;;;27.80;12.18;;;;;;;;;;5051506;28;20538;-52
2021/11/14 06:39:00;;;;;;;26.83;12.02;;;;;;;;;;5052622;28;20025;-52
2021/11/14 06:41:26;;;;;;;21.88;10.40;;;;;;;;;;5049831;28;20469;-52
2021/11/14 06:43:52;;;;;;;26.58;11.63;;;;;;;;;;5052647;28;20025;-55
2021/11/14 06:46:18;;;;;;;22.35;10.00;;;;;;;;;;5046277;28;20101;-53
2021/11/14 06:48:44;;;;;;;31.23;11.65;;;;;;;;;;5057943;28;20028;-55
2021/11/14 06:51:10;;;;;;;27.27;12.48;;;;;;;;;;5052252;28;20032;-52
2021/11/14 06:53:36;;;;;;;26.00;11.55;;;;;;;;;;5061511;28;20044;-51
2021/11/14 06:56:02;;;;;;;26.23;11.45;;;;;;;;;;5044144;28;20380;-55
2021/11/14 06:58:29;;;;;;;27.85;12.65;;;;;;;;;;5044526;28;20043;-53
2021/11/14 07:00:55;;;;;;;25.60;11.88;;;;;;;;;;5050408;28;20396;-55
2021/11/14 07:03:21;;;;;;;27.65;13.55;;;;;;;;;;5051175;28;20021;-57
2021/11/14 07:05:47;;;;;;;29.13;13.60;;;;;;;;;;5046133;28;20422;-53
2021/11/14 07:08:14;;;;;;;31.27;12.88;;;;;;;;;;5044847;28;20036;-55
2021/11/14 07:10:40;;;;;;;26.90;12.98;;;;;;;;;;5049066;28;20116;-55
2021/11/14 07:13:06;;;;;;;32.85;13.23;;;;;;;;;;5049392;28;20060;-57
2021/11/14 07:15:33;;;;;;;31.50;14.27;;;;;;;;;;5051431;28;20090;-54
2021/11/14 07:17:59;;;;;;;31.20;14.27;;;;;;;;;;5045136;28;20079;-53
2021/11/14 07:20:25;;;;;;;28.17;12.98;;;;;;;;;;5048243;28;20030;-54
2021/11/14 07:22:51;;;;;;;28.23;12.70;;;;;;;;;;5049459;28;20427;-54
2021/11/14 07:25:20;;;;;;;33.90;13.57;;;;;;;;;;5050810;28;20079;-52
2021/11/14 07:27:49;;;;;;;31.65;13.27;;;;;;;;;;5049189;28;20057;-57
2021/11/14 07:30:15;;;;;;;32.35;14.13;;;;;;;;;;5050479;28;20032;-57
2021/11/14 07:32:41;;;;;;;31.73;13.90;;;;;;;;;;5051853;28;20392;-52
2021/11/14 07:35:08;;;;;;;34.47;14.23;;;;;;;;;;5049541;28;20550;-52
2021/11/14 07:37:34;;;;;;;37.50;14.48;;;;;;;;;;5051992;28;20044;-56
2021/11/14 07:40:00;;;;;;;31.35;14.70;;;;;;;;;;5051013;28;20049;-55
2021/11/14 07:42:26;;;;;;;31.77;13.30;;;;;;;;;;5051990;28;20036;-54
2021/11/14 07:44:52;;;;;;;37.83;15.85;;;;;;;;;;5051169;28;20037;-51
2021/11/14 07:47:18;;;;;;;33.85;14.63;;;;;;;;;;5042028;28;20044;-52
2021/11/14 07:49:44;;;;;;;31.63;13.27;;;;;;;;;;5049090;28;20079;-54
2021/11/14 07:52:10;;;;;;;33.65;13.80;;;;;;;;;;5043806;28;20040;-53
2021/11/14 07:54:36;;;;;;;36.78;15.35;;;;;;;;;;5049696;28;20025;-52
2021/11/14 07:57:02;;;;;;;34.45;15.10;;;;;;;;;;5051857;28;20115;-55
2021/11/14 07:59:28;;;;;;;32.75;14.02;;;;;;;;;;5043879;28;20072;-53
2021/11/14 08:01:54;;;;;;;39.13;15.45;;;;;;;;;;5045933;28;20049;-56
2021/11/14 08:04:20;;;;;;;37.63;14.68;;;;;;;;;;5051685;28;20029;-54
2021/11/14 08:06:46;;;;;;;35.20;14.98;;;;;;;;;;5044645;28;20508;-56
2021/11/14 08:09:12;;;;;;;36.42;14.00;;;;;;;;;;5050976;28;20025;-56
2021/11/14 08:11:38;;;;;;;34.88;14.05;;;;;;;;;;5049744;28;20044;-55
2021/11/14 08:14:04;;;;;;;33.08;14.30;;;;;;;;;;5045573;28;20079;-56
2021/11/14 08:16:30;;;;;;;38.10;15.38;;;;;;;;;;5047636;28;20717;-54
2021/11/14 08:18:56;;;;;;;38.08;15.73;;;;;;;;;;5045362;28;20030;-56
2021/11/14 08:21:22;;;;;;;35.78;15.52;;;;;;;;;;5038094;28;20359;-56
2021/11/14 08:23:48;;;;;;;34.10;15.18;;;;;;;;;;5051521;28;20021;-57
2021/11/14 08:26:14;;;;;;;32.90;13.93;;;;;;;;;;5042041;28;20079;-54
2021/11/14 08:28:40;;;;;;;35.45;15.88;;;;;;;;;;5047883;28;20037;-53
2021/11/14 08:31:06;;;;;;;35.28;15.73;;;;;;;;;;5050245;28;20373;-54
2021/11/14 08:33:33;;;;;;;36.03;15.50;;;;;;;;;;5045286;28;20053;-57
2021/11/14 08:35:59;;;;;;;39.20;16.15;;;;;;;;;;5050706;28;20029;-51
2021/11/14 08:38:29;;;;;;;38.65;15.57;;;;;;;;;;5046948;28;20048;-54
2021/11/14 08:40:56;;;;;;;41.53;16.23;;;;;;;;;;5051471;28;20098;-51
2021/11/14 08:43:22;;;;;;;45.63;17.15;;;;;;;;;;5051125;28;20510;-52
2021/11/14 08:45:48;;;;;;;42.92;17.10;;;;;;;;;;5048116;28;20148;-54
2021/11/14 08:48:14;;;;;;;41.50;16.58;;;;;;;;;;5046940;28;20115;-51
2021/11/14 08:50:40;;;;;;;46.25;17.55;;;;;;;;;;5048550;28;20021;-53
2021/11/14 08:53:06;;;;;;;36.80;16.75;;;;;;;;;;5042383;28;20032;-55
2021/11/14 08:55:32;;;;;;;37.58;15.57;;;;;;;;;;5050037;28;20032;-53
2021/11/14 08:57:59;;;;;;;42.10;17.85;;;;;;;;;;5049721;28;20052;-54
2021/11/14 09:00:27;;;;;;;41.30;16.75;;;;;;;;;;5049513;28;20029;-57
2021/11/14 09:02:54;;;;;;;38.72;16.13;;;;;;;;;;5051041;28;20025;-58
2021/11/14 09:05:22;;;;;;;44.33;16.67;;;;;;;;;;5042465;28;20029;-57
2021/11/14 09:07:48;;;;;;;46.33;17.70;;;;;;;;;;5046781;28;20033;-57
2021/11/14 09:10:14;;;;;;;43.55;17.35;;;;;;;;;;5051214;28;20032;-57
2021/11/14 09:12:40;;;;;;;50.90;18.83;;;;;;;;;;5048876;28;20120;-55
2021/11/14 09:15:07;;;;;;;43.75;16.90;;;;;;;;;;5049964;28;20486;-56
2021/11/14 09:17:33;;;;;;;50.90;18.40;;;;;;;;;;5046572;28;20079;-54
2021/11/14 09:19:59;;;;;;;48.70;17.50;;;;;;;;;;5051681;28;20025;-57
2021/11/14 09:22:25;;;;;;;43.25;17.90;;;;;;;;;;5050564;28;20024;-54
2021/11/14 09:24:51;;;;;;;48.47;18.50;;;;;;;;;;5045661;28;20124;-56
2021/11/14 09:27:17;;;;;;;45.20;18.23;;;;;;;;;;5045030;28;20040;-57
2021/11/14 09:29:44;;;;;;;45.17;17.92;;;;;;;;;;5047983;28;20021;-51
2021/11/14 09:32:10;;;;;;;49.67;17.40;;;;;;;;;;5054309;28;20059;-56
2021/11/14 09:34:36;;;;;;;55.35;19.55;;;;;;;;;;5050773;28;20124;-53
2021/11/14 09:37:02;;;;;;;57.22;19.17;;;;;;;;;;5042167;28;20037;-52
2021/11/14 09:39:28;;;;;;;44.90;16.63;;;;;;;;;;5052852;28;20102;-52
2021/11/14 09:41:54;;;;;;;46.33;17.00;;;;;;;;;;5046678;28;20029;-53
2021/11/14 09:44:21;;;;;;;45.88;17.23;;;;;;;;;;5046114;28;20033;-51
2021/11/14 09:46:52;;;;;;;49.30;17.55;;;;;;;;;;5047729;28;20033;-51
2021/11/14 09:49:19;;;;;;;47.00;19.23;;;;;;;;;;5044623;28;20025;-52
2021/11/14 09:51:47;;;;;;;43.50;17.08;;;;;;;;;;5049793;28;20710;-55
2021/11/14 09:54:13;;;;;;;45.92;17.60;;;;;;;;;;5045669;28;20972;-53
2021/11/14 09:56:39;;;;;;;46.53;19.48;;;;;;;;;;5047461;28;20117;-52
2021/11/14 09:59:06;;;;;;;47.22;17.98;;;;;;;;;;5049736;28;20633;-53
2021/11/14 10:01:32;;;;;;;54.38;18.52;;;;;;;;;;5046942;28;20449;-54
2021/11/14 10:03:58;;;;;;;46.83;18.98;;;;;;;;;;5046532;28;20060;-56
2021/11/14 10:06:26;;;;;;;49.75;20.17;;;;;;;;;;5044505;28;20029;-57
2021/11/14 10:08:52;;;;;;;56.88;21.63;;;;;;;;;;5050202;28;20485;-55
2021/11/14 10:11:18;;;;;;;54.10;20.83;;;;;;;;;;5048422;28;20032;-57
2021/11/14 10:13:48;;;;;;;58.38;20.88;;;;;;;;;;5052263;28;20041;-58
2021/11/14 10:16:16;;;;;;;50.75;21.15;;;;;;;;;;5041641;28;20037;-55
2021/11/14 10:18:49;;;;;;;55.47;20.95;;;;;;;;;;5044011;28;20111;-56
2021/11/14 10:21:15;;;;;;;;;;;;;;;;;;5052295;28;20489;-57
2021/11/14 10:23:41;;;;;;;62.88;21.98;;;;;;;;;;5051101;28;19990;-57
2021/11/14 10:26:11;;;;;;;65.00;23.70;;;;;;;;;;5049292;28;20060;-51
2021/11/14 10:28:38;;;;;;;58.67;21.95;;;;;;;;;;5050570;28;20381;-53
2021/11/14 10:31:04;;;;;;;57.33;22.20;;;;;;;;;;5045761;28;20033;-54
2021/11/14 10:33:30;;;;;;;57.08;22.13;;;;;;;;;;5040314;28;20191;-53
2021/11/14 10:35:58;;;;;;;59.22;24.60;;;;;;;;;;5045747;28;20506;-57
2021/11/14 10:38:26;;;;;;;60.42;21.98;;;;;;;;;;5052438;28;20504;-52
2021/11/14 10:40:54;;;;;;;62.50;23.23;;;;;;;;;;5049126;28;20032;-57
2021/11/14 10:43:23;;;;;;;58.88;21.52;;;;;;;;;;5049649;28;20445;-54
2021/11/14 10:45:51;;;;;;;51.90;21.33;;;;;;;;;;5046251;28;20052;-55
2021/11/14 10:48:19;;;;;;;50.30;19.88;;;;;;;;;;5045424;28;20537;-55
2021/11/14 10:50:48;;;;;;;57.42;21.52;;;;;;;;;;5050062;28;20113;-56
2021/11/14 10:53:16;;;;;;;52.50;21.35;;;;;;;;;;5048988;28;20031;-58
2021/11/14 10:55:43;;;;;;;56.75;22.42;;;;;;;;;;5045092;28;20029;-53
2021/11/14 10:58:10;;;;;;;51.08;21.10;;;;;;;;;;5049870;28;20039;-56
2021/11/14 11:00:38;;;;;;;57.17;21.60;;;;;;;;;;5051779;28;20035;-52
2021/11/14 11:03:05;;;;;;;61.92;22.98;;;;;;;;;;5050826;28;20528;-56
2021/11/14 11:05:31;;;;;;;60.38;23.65;;;;;;;;;;5049161;28;20392;-51
2021/11/14 11:08:01;;;;;;;55.67;22.75;;;;;;;;;;5043173;28;20411;-54
2021/11/14 11:10:40;;;;;;;57.38;23.02;;;;;;;;;;5048004;28;20073;-55
2021/11/14 11:13:08;;;;;;;63.92;23.27;;;;;;;;;;5048749;28;20392;-54
2021/11/14 11:15:45;;;;;;;56.25;21.83;;;;;;;;;;5043368;28;20032;-53
2021/11/14 11:18:12;;;;;;;58.58;22.90;;;;;;;;;;5048907;28;20377;-53
2021/11/14 11:20:38;;;;;;;71.18;23.63;;;;;;;;;;5045671;28;20351;-51
2021/11/14 11:23:07;;;;;;;54.92;23.35;;;;;;;;;;5040865;28;20057;-53
2021/11/14 11:25:35;;;;;;;60.20;23.45;;;;;;;;;;5050936;28;20047;-51
2021/11/14 11:28:02;;;;;;;62.40;24.27;;;;;;;;;;5050145;28;20116;-53
2021/11/14 11:30:34;;;;;;;64.07;24.77;;;;;;;;;;5048763;28;20035;-53
2021/11/14 11:33:00;;;;;;;62.60;24.35;;;;;;;;;;5050770;28;20107;-55
2021/11/14 11:35:26;;;;;;;63.60;24.70;;;;;;;;;;5045875;28;20025;-57
2021/11/14 11:37:52;;;;;;;68.68;25.90;;;;;;;;;;5050280;28;20036;-58
2021/11/14 11:40:19;;;;;;;62.15;22.23;;;;;;;;;;5050554;28;20017;-56
2021/11/14 11:42:45;;;;;;;58.45;23.17;;;;;;;;;;5047674;28;20029;-55
2021/11/14 11:45:11;;;;;;;50.35;20.92;;;;;;;;;;5045857;28;20419;-55
2021/11/14 11:47:39;;;;;;;60.97;23.92;;;;;;;;;;5040824;28;20052;-53
2021/11/14 11:50:06;;;;;;;58.10;21.65;;;;;;;;;;5043179;28;20055;-56
2021/11/14 11:52:43;;;;;;;55.08;20.98;;;;;;;;;;5040895;28;20548;-56
2021/11/14 11:55:18;;;;;;;56.30;20.65;;;;;;;;;;5039662;28;20024;-55
2021/11/14 11:57:44;;;;;;;57.13;22.85;;;;;;;;;;5044293;28;20029;-54
2021/11/14 12:00:11;;;;;;;54.53;21.98;;;;;;;;;;5046464;28;20025;-55
2021/11/14 12:02:37;;;;;;;57.55;22.42;;;;;;;;;;5040583;28;20052;-56
2021/11/14 12:05:11;;;;;;;56.80;22.25;;;;;;;;;;5046024;28;20048;-53
2021/11/14 12:07:44;;;;;;;59.78;23.55;;;;;;;;;;5047922;28;20539;-54
2021/11/14 12:10:17;;;;;;;60.08;22.95;;;;;;;;;;5039921;28;21377;-53
2021/11/14 12:12:56;;;;;;;55.38;21.65;;;;;;;;;;5042195;28;20127;-53
2021/11/14 12:15:28;;;;;;;58.55;21.92;;;;;;;;;;5047966;28;20032;-56
2021/11/14 12:17:59;;;;;;;59.05;23.33;;;;;;;;;;5040600;28;20044;-55
2021/11/14 12:20:30;;;;;;;62.45;22.48;;;;;;;;;;5043142;28;20021;-56
2021/11/14 12:22:59;;;;;;;63.65;23.48;;;;;;;;;;5042838;28;20022;-54
2021/11/14 12:25:30;;;;;;;62.10;23.88;;;;;;;;;;5049294;28;20033;-53
2021/11/14 12:27:57;;;;;;;62.25;24.25;;;;;;;;;;5048582;28;20039;-56
2021/11/14 12:30:23;;;;;;;64.93;21.42;;;;;;;;;;5045305;28;20039;-53
2021/11/14 12:32:51;;;;;;;60.80;23.50;;;;;;;;;;5040212;28;20098;-57
2021/11/14 12:35:20;;;;;;;64.13;24.00;;;;;;;;;;5048471;28;20033;-54
2021/11/14 12:37:58;;;;;;;60.22;22.20;;;;;;;;;;5057518;28;20035;-57
2021/11/14 12:40:35;;;;;;;61.47;22.85;;;;;;;;;;5056219;28;20081;-56
2021/11/14 12:43:08;;;;;;;57.65;23.00;;;;;;;;;;5045688;28;20506;-53
2021/11/14 12:45:45;;;;;;;55.90;21.60;;;;;;;;;;5060946;28;20024;-54
2021/11/14 12:48:11;;;;;;;56.95;22.55;;;;;;;;;;5059268;28;20028;-55
2021/11/14 12:50:37;;;;;;;62.67;24.15;;;;;;;;;;5044464;28;20037;-55
2021/11/14 12:53:17;;;;;;;62.83;23.30;;;;;;;;;;5056188;28;20116;-52
2021/11/14 12:55:43;;;;;;;65.50;23.55;;;;;;;;;;5049088;28;20033;-57
2021/11/14 12:58:11;;;;;;;56.85;21.75;;;;;;;;;;5053416;28;20119;-56
2021/11/14 13:00:39;;;;;;;68.30;24.58;;;;;;;;;;5045746;28;20076;-52
2021/11/14 13:03:07;;;;;;;68.68;25.52;;;;;;;;;;5052298;28;20066;-53
2021/11/14 13:05:43;;;;;;;68.78;25.90;;;;;;;;;;5044589;28;20143;-54
2021/11/14 13:08:09;;;;;;;63.45;23.98;;;;;;;;;;5045266;28;20029;-57
2021/11/14 13:10:45;;;;;;;61.53;23.27;;;;;;;;;;5050022;28;20129;-55
2021/11/14 13:13:14;;;;;;;55.67;23.05;;;;;;;;;;5046056;28;20029;-55
2021/11/14 13:15:40;;;;;;;68.55;23.48;;;;;;;;;;5038927;28;20029;-56
2021/11/14 13:18:06;;;;;;;61.80;22.67;;;;;;;;;;5043736;28;20064;-54
2021/11/14 13:20:33;;;;;;;59.88;22.13;;;;;;;;;;5048418;28;20948;-58
2021/11/14 13:22:59;;;;;;;68.07;24.70;;;;;;;;;;5049618;28;20107;-56
2021/11/14 13:25:27;;;;;;;66.65;23.25;;;;;;;;;;5045197;28;20052;-57
2021/11/14 13:27:53;;;;;;;62.97;24.40;;;;;;;;;;5033417;28;20117;-52
2021/11/14 13:30:20;;;;;;;68.18;23.90;;;;;;;;;;5040453;28;20033;-55
2021/11/14 13:32:47;;;;;;;63.80;23.80;;;;;;;;;;5046436;28;20141;-55
2021/11/14 13:35:13;;;;;;;65.97;23.42;;;;;;;;;;5044030;28;20033;-56
2021/11/14 13:37:40;;;;;;;60.90;23.02;;;;;;;;;;5048674;28;20025;-52
2021/11/14 13:40:08;;;;;;;68.07;24.00;;;;;;;;;;5041157;28;20103;-55
2021/11/14 13:42:36;;;;;;;61.28;23.23;;;;;;;;;;5042538;28;20378;-57
2021/11/14 13:45:07;;;;;;;61.05;22.50;;;;;;;;;;5040503;28;20025;-56
2021/11/14 13:47:38;;;;;;;60.30;22.88;;;;;;;;;;5050109;28;20393;-58
2021/11/14 13:50:05;;;;;;;74.97;24.48;;;;;;;;;;5041534;28;20033;-58
2021/11/14 13:52:31;;;;;;;61.47;22.42;;;;;;;;;;5046071;28;20082;-55
2021/11/14 13:55:02;;;;;;;66.85;24.23;;;;;;;;;;5044300;28;20164;-55
2021/11/14 13:57:30;;;;;;;61.20;22.05;;;;;;;;;;5051037;28;20036;-53
2021/11/14 13:59:57;;;;;;;71.93;22.98;;;;;;;;;;5049114;28;20032;-57
2021/11/14 14:02:24;;;;;;;58.65;21.25;;;;;;;;;;5050255;28;20047;-55
2021/11/14 14:04:55;;;;;;;60.85;21.05;;;;;;;;;;5050681;28;20028;-54
2021/11/14 14:07:21;;;;;;;61.25;21.27;;;;;;;;;;5046986;28;20079;-54
2021/11/14 14:09:58;;;;;;;63.13;23.10;;;;;;;;;;5048267;28;20032;-53
2021/11/14 14:12:25;;;;;;;63.83;22.48;;;;;;;;;;5048824;28;20029;-57
2021/11/14 14:14:52;;;;;;;57.85;20.77;;;;;;;;;;5037980;28;20021;-55
2021/11/14 14:17:18;;;;;;;58.08;19.88;;;;;;;;;;5053494;28;20106;-53
2021/11/14 14:19:44;;;;;;;52.88;19.77;;;;;;;;;;5045436;28;20481;-52